sensor_id;sensor_type;location;lat;lon;timestamp;pressure;altitude;pressure_sealevel;temperature;humidity
48964;BME280;34776;48.180;16.420;2023-01-25T00:00:43;101564.31;;;4.62;75.91
48964;BME280;34776;48.180;16.420;2023-01-25T00:03:09;101564.34;;;4.60;76.12
48964;BME280;34776;48.180;16.420;2023-01-25T00:05:34;101559.06;;;4.54;76.23
48964;BME280;34776;48.180;16.420;2023-01-25T00:08:00;101566.09;;;4.61;76.57
48964;BME280;34776;48.180;16.420;2023-01-25T00:10:25;101562.59;;;4.65;76.39
48964;BME280;34776;48.180;16.420;2023-01-25T00:12:50;101562.59;;;4.72;76.37
48964;BME280;34776;48.180;16.420;2023-01-25T00:15:16;101567.00;;;4.76;76.04
48964;BME280;34776;48.180;16.420;2023-01-25T00:17:41;101569.63;;;4.76;76.16
48964;BME280;34776;48.180;16.420;2023-01-25T00:20:07;101561.72;;;4.80;76.17
48964;BME280;34776;48.180;16.420;2023-01-25T00:22:33;101568.72;;;4.83;76.07
48964;BME280;34776;48.180;16.420;2023-01-25T00:24:58;101573.16;;;4.81;75.81
48964;BME280;34776;48.180;16.420;2023-01-25T00:27:24;101569.66;;;4.79;76.00
48964;BME280;34776;48.180;16.420;2023-01-25T00:29:50;101563.50;;;4.71;76.12
48964;BME280;34776;48.180;16.420;2023-01-25T00:34:48;101566.09;;;4.67;76.19
48964;BME280;34776;48.180;16.420;2023-01-25T00:39:47;101575.75;;;4.72;76.09
48964;BME280;34776;48.180;16.420;2023-01-25T00:42:15;101569.63;;;4.70;76.12
48964;BME280;34776;48.180;16.420;2023-01-25T00:44:41;101574.88;;;4.70;76.31
48964;BME280;34776;48.180;16.420;2023-01-25T00:47:07;101574.00;;;4.69;76.11
48964;BME280;34776;48.180;16.420;2023-01-25T00:49:33;101581.91;;;4.64;76.21
48964;BME280;34776;48.180;16.420;2023-01-25T00:51:58;101581.88;;;4.61;76.34
48964;BME280;34776;48.180;16.420;2023-01-25T00:54:24;101576.63;;;4.58;76.23
48964;BME280;34776;48.180;16.420;2023-01-25T00:56:50;101583.63;;;4.53;76.44
48964;BME280;34776;48.180;16.420;2023-01-25T00:59:18;101585.38;;;4.57;76.45
48964;BME280;34776;48.180;16.420;2023-01-25T01:01:43;101580.13;;;4.54;76.28
48964;BME280;34776;48.180;16.420;2023-01-25T01:04:09;101585.38;;;4.57;76.33
48964;BME280;34776;48.180;16.420;2023-01-25T01:06:35;101587.16;;;4.58;76.41
48964;BME280;34776;48.180;16.420;2023-01-25T01:09:02;101587.13;;;4.55;76.27
48964;BME280;34776;48.180;16.420;2023-01-25T01:11:27;101585.38;;;4.51;76.08
48964;BME280;34776;48.180;16.420;2023-01-25T01:13:52;101583.63;;;4.50;76.48
48964;BME280;34776;48.180;16.420;2023-01-25T01:16:20;101580.13;;;4.57;76.43
48964;BME280;34776;48.180;16.420;2023-01-25T01:18:45;101574.88;;;4.59;76.38
48964;BME280;34776;48.180;16.420;2023-01-25T01:21:12;101581.03;;;4.62;76.22
48964;BME280;34776;48.180;16.420;2023-01-25T01:23:38;101578.41;;;4.67;76.29
48964;BME280;34776;48.180;16.420;2023-01-25T01:26:05;101574.91;;;4.73;76.36
48964;BME280;34776;48.180;16.420;2023-01-25T01:28:32;101575.78;;;4.68;76.10
48964;BME280;34776;48.180;16.420;2023-01-25T01:30:59;101571.38;;;4.64;75.94
48964;BME280;34776;48.180;16.420;2023-01-25T01:33:25;101566.97;;;4.65;76.22
48964;BME280;34776;48.180;16.420;2023-01-25T01:35:50;101572.25;;;4.65;76.03
48964;BME280;34776;48.180;16.420;2023-01-25T01:38:15;101568.72;;;4.66;75.97
48964;BME280;34776;48.180;16.420;2023-01-25T01:40:45;101570.47;;;4.56;75.93
48964;BME280;34776;48.180;16.420;2023-01-25T01:43:19;101566.97;;;4.54;76.12
48964;BME280;34776;48.180;16.420;2023-01-25T01:45:51;101566.06;;;4.51;76.19
48964;BME280;34776;48.180;16.420;2023-01-25T01:50:56;101565.22;;;4.55;76.34
48964;BME280;34776;48.180;16.420;2023-01-25T01:53:23;101560.81;;;4.55;76.38
48964;BME280;34776;48.180;16.420;2023-01-25T01:55:52;101558.19;;;4.63;76.53
48964;BME280;34776;48.180;16.420;2023-01-25T01:58:19;101555.59;;;4.64;76.18
48964;BME280;34776;48.180;16.420;2023-01-25T02:00:44;101558.22;;;4.64;75.98
48964;BME280;34776;48.180;16.420;2023-01-25T02:03:12;101563.44;;;4.60;76.02
48964;BME280;34776;48.180;16.420;2023-01-25T02:06:02;101560.81;;;4.55;76.19
48964;BME280;34776;48.180;16.420;2023-01-25T02:08:31;101568.72;;;4.55;76.04
48964;BME280;34776;48.180;16.420;2023-01-25T02:10:58;101562.56;;;4.53;76.11
48964;BME280;34776;48.180;16.420;2023-01-25T02:13:25;101566.09;;;4.52;76.19
48964;BME280;34776;48.180;16.420;2023-01-25T02:15:52;101564.31;;;4.51;76.15
48964;BME280;34776;48.180;16.420;2023-01-25T02:18:18;101562.56;;;4.53;76.22
48964;BME280;34776;48.180;16.420;2023-01-25T02:20:46;101564.31;;;4.48;76.23
48964;BME280;34776;48.180;16.420;2023-01-25T02:25:57;101570.44;;;4.42;76.56
48964;BME280;34776;48.180;16.420;2023-01-25T02:28:28;101566.06;;;4.43;76.52
48964;BME280;34776;48.180;16.420;2023-01-25T02:30:54;101559.91;;;4.42;76.46
48964;BME280;34776;48.180;16.420;2023-01-25T02:33:25;101567.84;;;4.45;76.66
48964;BME280;34776;48.180;16.420;2023-01-25T02:36:24;101559.91;;;4.47;76.39
48964;BME280;34776;48.180;16.420;2023-01-25T02:38:53;101558.16;;;4.49;76.57
48964;BME280;34776;48.180;16.420;2023-01-25T02:41:37;101560.81;;;4.52;76.65
48964;BME280;34776;48.180;16.420;2023-01-25T02:44:07;101552.06;;;4.52;76.57
48964;BME280;34776;48.180;16.420;2023-01-25T02:46:36;101554.66;;;4.48;76.60
48964;BME280;34776;48.180;16.420;2023-01-25T02:49:04;101551.16;;;4.48;76.75
48964;BME280;34776;48.180;16.420;2023-01-25T02:51:32;101557.31;;;4.45;76.96
48964;BME280;34776;48.180;16.420;2023-01-25T02:53:58;101550.25;;;4.43;76.95
48964;BME280;34776;48.180;16.420;2023-01-25T02:56:26;101537.97;;;4.40;76.92
48964;BME280;34776;48.180;16.420;2023-01-25T02:58:51;101536.22;;;4.41;76.88
48964;BME280;34776;48.180;16.420;2023-01-25T03:01:17;101530.97;;;4.38;76.90
48964;BME280;34776;48.180;16.420;2023-01-25T03:03:43;101534.47;;;4.38;77.19
48964;BME280;34776;48.180;16.420;2023-01-25T03:06:08;101526.59;;;4.40;77.17
48964;BME280;34776;48.180;16.420;2023-01-25T03:08:34;101530.97;;;4.38;77.21
48964;BME280;34776;48.180;16.420;2023-01-25T03:11:01;101527.44;;;4.39;77.31
48964;BME280;34776;48.180;16.420;2023-01-25T03:13:28;101516.94;;;4.42;77.27
48964;BME280;34776;48.180;16.420;2023-01-25T03:16:02;101516.91;;;4.39;77.38
48964;BME280;34776;48.180;16.420;2023-01-25T03:18:29;101513.44;;;4.41;77.05
48964;BME280;34776;48.180;16.420;2023-01-25T03:20:54;101509.03;;;4.42;77.31
48964;BME280;34776;48.180;16.420;2023-01-25T03:23:20;101504.66;;;4.44;77.53
48964;BME280;34776;48.180;16.420;2023-01-25T03:25:45;101499.38;;;4.44;77.04
48964;BME280;34776;48.180;16.420;2023-01-25T03:28:11;101502.00;;;4.41;77.31
48964;BME280;34776;48.180;16.420;2023-01-25T03:30:36;101496.75;;;4.36;77.44
48964;BME280;34776;48.180;16.420;2023-01-25T03:33:01;101490.59;;;4.39;77.58
48964;BME280;34776;48.180;16.420;2023-01-25T03:35:27;101481.81;;;4.43;77.49
48964;BME280;34776;48.180;16.420;2023-01-25T03:37:52;101490.59;;;4.45;77.31
48964;BME280;34776;48.180;16.420;2023-01-25T03:40:18;101495.84;;;4.39;77.36
48964;BME280;34776;48.180;16.420;2023-01-25T03:42:43;101487.97;;;4.30;77.42
48964;BME280;34776;48.180;16.420;2023-01-25T03:45:09;101482.69;;;4.25;77.57
48964;BME280;34776;48.180;16.420;2023-01-25T03:47:38;101473.91;;;4.26;77.58
48964;BME280;34776;48.180;16.420;2023-01-25T03:50:04;101473.94;;;4.27;77.63
48964;BME280;34776;48.180;16.420;2023-01-25T03:52:29;101477.44;;;4.30;77.59
48964;BME280;34776;48.180;16.420;2023-01-25T03:55:02;101476.56;;;4.27;77.59
48964;BME280;34776;48.180;16.420;2023-01-25T03:57:27;101473.06;;;4.32;77.64
48964;BME280;34776;48.180;16.420;2023-01-25T03:59:53;101470.44;;;4.38;77.56
48964;BME280;34776;48.180;16.420;2023-01-25T04:02:18;101476.59;;;4.37;77.43
48964;BME280;34776;48.180;16.420;2023-01-25T04:04:43;101476.56;;;4.34;77.26
48964;BME280;34776;48.180;16.420;2023-01-25T04:07:09;101476.56;;;4.32;77.53
48964;BME280;34776;48.180;16.420;2023-01-25T04:09:34;101474.81;;;4.36;77.47
48964;BME280;34776;48.180;16.420;2023-01-25T04:11:59;101473.06;;;4.33;77.41
48964;BME280;34776;48.180;16.420;2023-01-25T04:14:25;101470.41;;;4.30;77.64
48964;BME280;34776;48.180;16.420;2023-01-25T04:16:50;101476.56;;;4.27;77.76
48964;BME280;34776;48.180;16.420;2023-01-25T04:19:15;101482.72;;;4.26;78.07
48964;BME280;34776;48.180;16.420;2023-01-25T04:21:40;101483.59;;;4.22;78.12
48964;BME280;34776;48.180;16.420;2023-01-25T04:24:06;101477.41;;;4.17;78.29
48964;BME280;34776;48.180;16.420;2023-01-25T04:26:31;101483.53;;;4.13;78.46
48964;BME280;34776;48.180;16.420;2023-01-25T04:28:57;101477.41;;;4.13;78.64
48964;BME280;34776;48.180;16.420;2023-01-25T04:31:22;101466.91;;;4.14;78.60
48964;BME280;34776;48.180;16.420;2023-01-25T04:33:47;101469.50;;;4.11;78.58
48964;BME280;34776;48.180;16.420;2023-01-25T04:36:12;101462.50;;;4.10;78.69
48964;BME280;34776;48.180;16.420;2023-01-25T04:38:38;101464.25;;;4.08;78.58
48964;BME280;34776;48.180;16.420;2023-01-25T04:41:03;101458.13;;;4.07;78.79
48964;BME280;34776;48.180;16.420;2023-01-25T04:43:29;101459.00;;;4.08;78.86
48964;BME280;34776;48.180;16.420;2023-01-25T04:45:54;101459.00;;;4.08;78.77
48964;BME280;34776;48.180;16.420;2023-01-25T04:48:20;101455.47;;;4.09;78.86
48964;BME280;34776;48.180;16.420;2023-01-25T04:50:45;101458.09;;;4.04;78.83
48964;BME280;34776;48.180;16.420;2023-01-25T04:53:11;101449.34;;;4.05;78.92
48964;BME280;34776;48.180;16.420;2023-01-25T04:55:37;101455.47;;;4.03;78.90
48964;BME280;34776;48.180;16.420;2023-01-25T04:58:03;101457.22;;;4.07;79.05
48964;BME280;34776;48.180;16.420;2023-01-25T05:00:29;101452.00;;;4.12;78.81
48964;BME280;34776;48.180;16.420;2023-01-25T05:02:55;101457.25;;;4.16;78.85
48964;BME280;34776;48.180;16.420;2023-01-25T05:05:21;101452.88;;;4.17;78.64
48964;BME280;34776;48.180;16.420;2023-01-25T05:07:46;101460.75;;;4.17;78.55
48964;BME280;34776;48.180;16.420;2023-01-25T05:10:12;101456.38;;;4.17;78.31
48964;BME280;34776;48.180;16.420;2023-01-25T05:12:37;101460.75;;;4.17;78.32
48964;BME280;34776;48.180;16.420;2023-01-25T05:15:03;101465.13;;;4.18;78.38
48964;BME280;34776;48.180;16.420;2023-01-25T05:17:29;101461.63;;;4.16;78.34
48964;BME280;34776;48.180;16.420;2023-01-25T05:19:54;101466.88;;;4.16;78.59
48964;BME280;34776;48.180;16.420;2023-01-25T05:22:20;101462.50;;;4.19;78.63
48964;BME280;34776;48.180;16.420;2023-01-25T05:24:46;101462.53;;;4.16;78.46
48964;BME280;34776;48.180;16.420;2023-01-25T05:27:14;101463.41;;;4.14;78.51
48964;BME280;34776;48.180;16.420;2023-01-25T05:29:42;101464.28;;;4.14;78.62
48964;BME280;34776;48.180;16.420;2023-01-25T05:32:11;101469.53;;;4.14;78.53
48964;BME280;34776;48.180;16.420;2023-01-25T05:34:37;101470.41;;;4.16;78.58
48964;BME280;34776;48.180;16.420;2023-01-25T05:37:04;101474.78;;;4.11;78.57
48964;BME280;34776;48.180;16.420;2023-01-25T05:39:30;101477.41;;;4.10;78.51
48964;BME280;34776;48.180;16.420;2023-01-25T05:41:55;101467.78;;;4.10;78.63
48964;BME280;34776;48.180;16.420;2023-01-25T05:44:21;101472.16;;;4.13;78.70
48964;BME280;34776;48.180;16.420;2023-01-25T05:46:46;101476.53;;;4.11;78.47
48964;BME280;34776;48.180;16.420;2023-01-25T05:49:12;101478.28;;;4.13;78.57
48964;BME280;34776;48.180;16.420;2023-01-25T05:51:37;101473.03;;;4.16;78.52
48964;BME280;34776;48.180;16.420;2023-01-25T05:54:04;101472.16;;;4.17;78.27
48964;BME280;34776;48.180;16.420;2023-01-25T05:56:30;101478.28;;;4.19;78.80
48964;BME280;34776;48.180;16.420;2023-01-25T05:58:57;101480.06;;;4.14;78.50
48964;BME280;34776;48.180;16.420;2023-01-25T06:01:24;101474.75;;;4.05;78.53
48964;BME280;34776;48.180;16.420;2023-01-25T06:03:50;101485.28;;;4.05;78.73
48964;BME280;34776;48.180;16.420;2023-01-25T06:06:16;101476.50;;;4.03;78.49
48964;BME280;34776;48.180;16.420;2023-01-25T06:08:42;101480.91;;;4.09;78.79
48964;BME280;34776;48.180;16.420;2023-01-25T06:11:09;101482.66;;;4.06;78.71
48964;BME280;34776;48.180;16.420;2023-01-25T06:13:35;101478.28;;;4.10;78.79
48964;BME280;34776;48.180;16.420;2023-01-25T06:16:00;101486.16;;;4.07;78.66
48964;BME280;34776;48.180;16.420;2023-01-25T06:18:29;101484.41;;;4.09;78.84
48964;BME280;34776;48.180;16.420;2023-01-25T06:20:58;101483.56;;;4.10;78.94
48964;BME280;34776;48.180;16.420;2023-01-25T06:23:24;101487.06;;;4.15;78.87
48964;BME280;34776;48.180;16.420;2023-01-25T06:25:50;101485.31;;;4.14;78.76
48964;BME280;34776;48.180;16.420;2023-01-25T06:28:18;101487.06;;;4.14;78.82
48964;BME280;34776;48.180;16.420;2023-01-25T06:30:43;101488.81;;;4.10;78.64
48964;BME280;34776;48.180;16.420;2023-01-25T06:33:09;101488.81;;;4.10;78.54
48964;BME280;34776;48.180;16.420;2023-01-25T06:35:34;101479.16;;;4.09;78.71
48964;BME280;34776;48.180;16.420;2023-01-25T06:38:00;101483.56;;;4.12;78.83
48964;BME280;34776;48.180;16.420;2023-01-25T06:40:26;101474.78;;;4.17;78.63
48964;BME280;34776;48.180;16.420;2023-01-25T06:42:52;101471.31;;;4.24;78.66
48964;BME280;34776;48.180;16.420;2023-01-25T06:45:17;101470.41;;;4.24;78.56
48964;BME280;34776;48.180;16.420;2023-01-25T06:47:43;101474.78;;;4.17;78.31
48964;BME280;34776;48.180;16.420;2023-01-25T06:50:10;101471.28;;;4.14;78.17
48964;BME280;34776;48.180;16.420;2023-01-25T06:52:36;101472.13;;;4.05;78.48
48964;BME280;34776;48.180;16.420;2023-01-25T06:55:02;101467.75;;;4.04;78.70
48964;BME280;34776;48.180;16.420;2023-01-25T06:57:28;101473.00;;;4.01;78.82
48964;BME280;34776;48.180;16.420;2023-01-25T06:59:54;101464.25;;;4.03;78.80
48964;BME280;34776;48.180;16.420;2023-01-25T07:02:19;101472.13;;;4.06;78.74
48964;BME280;34776;48.180;16.420;2023-01-25T07:04:45;101466.03;;;4.12;78.61
48964;BME280;34776;48.180;16.420;2023-01-25T07:07:10;101469.53;;;4.20;78.51
48964;BME280;34776;48.180;16.420;2023-01-25T07:09:36;101460.78;;;4.24;78.32
48964;BME280;34776;48.180;16.420;2023-01-25T07:12:02;101460.78;;;4.18;78.33
48964;BME280;34776;48.180;16.420;2023-01-25T07:14:29;101462.53;;;4.16;78.34
48964;BME280;34776;48.180;16.420;2023-01-25T07:16:55;101466.03;;;4.18;78.48
48964;BME280;34776;48.180;16.420;2023-01-25T07:19:20;101461.63;;;4.22;78.35
48964;BME280;34776;48.180;16.420;2023-01-25T07:21:46;101461.66;;;4.20;78.14
48964;BME280;34776;48.180;16.420;2023-01-25T07:24:13;101464.28;;;4.23;78.26
48964;BME280;34776;48.180;16.420;2023-01-25T07:26:39;101465.19;;;4.29;78.21
48964;BME280;34776;48.180;16.420;2023-01-25T07:29:05;101454.66;;;4.33;78.15
48964;BME280;34776;48.180;16.420;2023-01-25T07:31:30;101457.25;;;4.30;77.71
48964;BME280;34776;48.180;16.420;2023-01-25T07:33:56;101469.53;;;4.30;77.99
48964;BME280;34776;48.180;16.420;2023-01-25T07:36:23;101477.44;;;4.28;78.12
48964;BME280;34776;48.180;16.420;2023-01-25T07:38:53;101473.06;;;4.29;77.97
48964;BME280;34776;48.180;16.420;2023-01-25T07:41:19;101472.19;;;4.33;77.82
48964;BME280;34776;48.180;16.420;2023-01-25T07:43:45;101469.53;;;4.30;77.93
48964;BME280;34776;48.180;16.420;2023-01-25T07:46:11;101468.66;;;4.29;77.69
48964;BME280;34776;48.180;16.420;2023-01-25T07:48:38;101462.53;;;4.29;77.80
48964;BME280;34776;48.180;16.420;2023-01-25T07:51:07;101462.53;;;4.29;77.66
48964;BME280;34776;48.180;16.420;2023-01-25T07:53:41;101472.19;;;4.26;77.81
48964;BME280;34776;48.180;16.420;2023-01-25T07:56:08;101463.41;;;4.27;77.92
48964;BME280;34776;48.180;16.420;2023-01-25T07:58:34;101465.16;;;4.30;77.78
48964;BME280;34776;48.180;16.420;2023-01-25T08:01:13;101458.16;;;4.29;77.75
48964;BME280;34776;48.180;16.420;2023-01-25T08:03:40;101464.28;;;4.36;77.59
48964;BME280;34776;48.180;16.420;2023-01-25T08:06:06;101459.91;;;4.38;77.35
48964;BME280;34776;48.180;16.420;2023-01-25T08:08:37;101469.56;;;4.36;77.34
48964;BME280;34776;48.180;16.420;2023-01-25T08:11:20;101456.38;;;4.40;77.21
48964;BME280;34776;48.180;16.420;2023-01-25T08:13:46;101454.63;;;4.42;77.04
48964;BME280;34776;48.180;16.420;2023-01-25T08:16:15;101457.25;;;4.47;76.89
48964;BME280;34776;48.180;16.420;2023-01-25T08:18:41;101455.53;;;4.46;76.96
48964;BME280;34776;48.180;16.420;2023-01-25T08:21:06;101450.25;;;4.51;76.69
48964;BME280;34776;48.180;16.420;2023-01-25T08:23:32;101453.75;;;4.53;76.65
48964;BME280;34776;48.180;16.420;2023-01-25T08:26:02;101454.66;;;4.58;76.71
48964;BME280;34776;48.180;16.420;2023-01-25T08:28:27;101446.72;;;4.65;76.66
48964;BME280;34776;48.180;16.420;2023-01-25T08:30:53;101445.00;;;4.64;76.07
48964;BME280;34776;48.180;16.420;2023-01-25T08:33:18;101445.88;;;4.60;75.97
48964;BME280;34776;48.180;16.420;2023-01-25T08:35:53;101440.59;;;4.59;75.80
48964;BME280;34776;48.180;16.420;2023-01-25T08:38:18;101437.09;;;4.55;75.86
48964;BME280;34776;48.180;16.420;2023-01-25T08:40:44;101435.34;;;4.53;75.96
48964;BME280;34776;48.180;16.420;2023-01-25T08:43:09;101439.72;;;4.49;76.06
48964;BME280;34776;48.180;16.420;2023-01-25T08:45:34;101437.97;;;4.48;76.12
48964;BME280;34776;48.180;16.420;2023-01-25T08:48:01;101435.31;;;4.51;75.91
48964;BME280;34776;48.180;16.420;2023-01-25T08:50:26;101430.09;;;4.56;75.87
48964;BME280;34776;48.180;16.420;2023-01-25T08:52:52;101435.31;;;4.57;75.70
48964;BME280;34776;48.180;16.420;2023-01-25T08:55:17;101429.19;;;4.61;75.72
48964;BME280;34776;48.180;16.420;2023-01-25T08:57:42;101423.03;;;4.53;75.39
48964;BME280;34776;48.180;16.420;2023-01-25T09:00:08;101429.19;;;4.49;75.42
48964;BME280;34776;48.180;16.420;2023-01-25T09:02:34;101426.56;;;4.49;75.39
48964;BME280;34776;48.180;16.420;2023-01-25T09:04:59;101429.22;;;4.52;75.46
48964;BME280;34776;48.180;16.420;2023-01-25T09:07:25;101427.44;;;4.54;75.46
48964;BME280;34776;48.180;16.420;2023-01-25T09:09:50;101432.69;;;4.57;75.43
48964;BME280;34776;48.180;16.420;2023-01-25T09:12:15;101427.44;;;4.59;75.15
48964;BME280;34776;48.180;16.420;2023-01-25T09:14:41;101434.44;;;4.55;75.27
48964;BME280;34776;48.180;16.420;2023-01-25T09:17:06;101441.50;;;4.58;75.28
48964;BME280;34776;48.180;16.420;2023-01-25T09:19:31;101440.59;;;4.62;75.44
48964;BME280;34776;48.180;16.420;2023-01-25T09:21:57;101441.47;;;4.68;75.15
48964;BME280;34776;48.180;16.420;2023-01-25T09:24:22;101435.34;;;4.73;75.26
48964;BME280;34776;48.180;16.420;2023-01-25T09:26:47;101427.44;;;4.79;75.17
48964;BME280;34776;48.180;16.420;2023-01-25T09:29:12;101420.41;;;4.73;75.00
48964;BME280;34776;48.180;16.420;2023-01-25T09:31:39;101413.38;;;4.74;75.28
48964;BME280;34776;48.180;16.420;2023-01-25T09:34:04;101414.22;;;4.80;74.73
48964;BME280;34776;48.180;16.420;2023-01-25T09:36:30;101403.72;;;4.83;74.63
48964;BME280;34776;48.180;16.420;2023-01-25T09:38:55;101401.06;;;4.85;74.58
48964;BME280;34776;48.180;16.420;2023-01-25T09:44:06;101411.56;;;4.99;74.39
48964;BME280;34776;48.180;16.420;2023-01-25T09:54:30;101397.53;;;4.98;73.84
48964;BME280;34776;48.180;16.420;2023-01-25T09:56:58;101394.88;;;4.97;73.96
48964;BME280;34776;48.180;16.420;2023-01-25T09:59:25;101393.16;;;4.93;74.09
48964;BME280;34776;48.180;16.420;2023-01-25T10:01:59;101385.25;;;4.93;73.97
48964;BME280;34776;48.180;16.420;2023-01-25T10:04:38;101389.66;;;4.87;73.94
48964;BME280;34776;48.180;16.420;2023-01-25T10:07:27;101381.75;;;4.83;74.03
48964;BME280;34776;48.180;16.420;2023-01-25T10:10:02;101368.59;;;4.87;74.36
48964;BME280;34776;48.180;16.420;2023-01-25T10:12:35;101362.44;;;4.90;74.18
48964;BME280;34776;48.180;16.420;2023-01-25T10:15:01;101363.28;;;4.98;73.97
48964;BME280;34776;48.180;16.420;2023-01-25T10:17:36;101357.13;;;5.02;73.75
48964;BME280;34776;48.180;16.420;2023-01-25T10:33:10;101339.50;;;5.15;73.06
48964;BME280;34776;48.180;16.420;2023-01-25T10:35:41;101327.22;;;5.13;73.40
48964;BME280;34776;48.180;16.420;2023-01-25T10:38:20;101320.19;;;5.12;73.30
48964;BME280;34776;48.180;16.420;2023-01-25T10:40:56;101334.25;;;5.09;73.37
48964;BME280;34776;48.180;16.420;2023-01-25T10:43:23;101329.84;;;5.11;73.65
48964;BME280;34776;48.180;16.420;2023-01-25T10:45:50;101325.44;;;5.12;73.50
48964;BME280;34776;48.180;16.420;2023-01-25T10:48:35;101316.69;;;5.09;73.32
48964;BME280;34776;48.180;16.420;2023-01-25T10:51:01;101320.22;;;5.08;73.52
48964;BME280;34776;48.180;16.420;2023-01-25T10:53:34;101314.94;;;5.08;73.64
48964;BME280;34776;48.180;16.420;2023-01-25T10:58:40;101310.53;;;5.11;73.38
48964;BME280;34776;48.180;16.420;2023-01-25T11:01:09;101303.53;;;5.06;73.56
48964;BME280;34776;48.180;16.420;2023-01-25T11:03:41;101303.59;;;4.96;73.72
48964;BME280;34776;48.180;16.420;2023-01-25T11:06:09;101293.91;;;5.02;73.74
48964;BME280;34776;48.180;16.420;2023-01-25T11:08:41;101284.25;;;4.98;73.77
48964;BME280;34776;48.180;16.420;2023-01-25T11:11:55;101281.59;;;5.01;73.27
48964;BME280;34776;48.180;16.420;2023-01-25T11:14:23;101281.63;;;4.97;73.52
48964;BME280;34776;48.180;16.420;2023-01-25T11:16:51;101283.38;;;4.96;73.86
48964;BME280;34776;48.180;16.420;2023-01-25T11:19:25;101286.91;;;4.92;73.89
48964;BME280;34776;48.180;16.420;2023-01-25T11:21:53;101278.13;;;4.93;74.01
48964;BME280;34776;48.180;16.420;2023-01-25T11:24:21;101280.75;;;4.96;73.74
48964;BME280;34776;48.180;16.420;2023-01-25T11:26:49;101271.97;;;4.94;73.87
48964;BME280;34776;48.180;16.420;2023-01-25T11:29:20;101269.31;;;5.00;74.23
48964;BME280;34776;48.180;16.420;2023-01-25T11:31:55;101278.13;;;4.96;74.01
48964;BME280;34776;48.180;16.420;2023-01-25T11:34:27;101259.66;;;5.02;74.17
48964;BME280;34776;48.180;16.420;2023-01-25T11:42:26;101237.59;;;5.16;73.23
48964;BME280;34776;48.180;16.420;2023-01-25T11:51:07;101221.72;;;5.29;72.91
48964;BME280;34776;48.180;16.420;2023-01-25T11:56:57;101213.84;;;5.25;72.72
48964;BME280;34776;48.180;16.420;2023-01-25T11:59:51;101212.97;;;5.23;72.52
48964;BME280;34776;48.180;16.420;2023-01-25T12:10:21;101188.41;;;5.18;72.27
48964;BME280;34776;48.180;16.420;2023-01-25T12:13:09;101184.97;;;5.06;72.50
48964;BME280;34776;48.180;16.420;2023-01-25T12:15:58;101183.25;;;5.02;72.80
48964;BME280;34776;48.180;16.420;2023-01-25T12:18:45;101170.13;;;4.98;72.85
48964;BME280;34776;48.180;16.420;2023-01-25T12:21:44;101181.56;;;4.89;72.68
48964;BME280;34776;48.180;16.420;2023-01-25T12:29:48;101160.50;;;4.89;73.41
48964;BME280;34776;48.180;16.420;2023-01-25T12:32:22;101160.53;;;4.86;73.36
48964;BME280;34776;48.180;16.420;2023-01-25T12:37:41;101142.94;;;4.88;73.35
48964;BME280;34776;48.180;16.420;2023-01-25T12:40:16;101140.28;;;4.91;73.34
48964;BME280;34776;48.180;16.420;2023-01-25T12:42:43;101145.59;;;4.90;73.06
48964;BME280;34776;48.180;16.420;2023-01-25T12:45:24;101127.13;;;4.91;73.40
48964;BME280;34776;48.180;16.420;2023-01-25T12:48:00;101132.38;;;4.91;73.10
48964;BME280;34776;48.180;16.420;2023-01-25T12:50:32;101126.25;;;4.92;73.04
48964;BME280;34776;48.180;16.420;2023-01-25T12:53:01;101125.34;;;4.93;73.02
48964;BME280;34776;48.180;16.420;2023-01-25T12:55:29;101126.22;;;4.97;73.09
48964;BME280;34776;48.180;16.420;2023-01-25T12:58:03;101113.94;;;4.91;72.92
48964;BME280;34776;48.180;16.420;2023-01-25T13:13:48;101100.84;;;4.82;73.15
48964;BME280;34776;48.180;16.420;2023-01-25T13:16:32;101097.34;;;4.80;73.20
48964;BME280;34776;48.180;16.420;2023-01-25T13:18:59;101095.63;;;4.79;73.18
48964;BME280;34776;48.180;16.420;2023-01-25T13:21:39;101081.59;;;4.74;73.16
48964;BME280;34776;48.180;16.420;2023-01-25T13:31:54;101083.41;;;4.68;73.08
48964;BME280;34776;48.180;16.420;2023-01-25T13:37:19;101072.00;;;4.65;73.49
48964;BME280;34776;48.180;16.420;2023-01-25T13:39:50;101073.78;;;4.64;73.72
48964;BME280;34776;48.180;16.420;2023-01-25T13:42:22;101064.97;;;4.67;73.75
48964;BME280;34776;48.180;16.420;2023-01-25T13:44:51;101062.31;;;4.72;73.39
48964;BME280;34776;48.180;16.420;2023-01-25T13:47:23;101057.94;;;4.67;73.47
48964;BME280;34776;48.180;16.420;2023-01-25T13:50:12;101064.13;;;4.63;73.65
48964;BME280;34776;48.180;16.420;2023-01-25T13:53:24;101061.53;;;4.59;73.25
48964;BME280;34776;48.180;16.420;2023-01-25T13:55:54;101056.28;;;4.51;73.76
48964;BME280;34776;48.180;16.420;2023-01-25T13:58:26;101060.72;;;4.46;74.03
48964;BME280;34776;48.180;16.420;2023-01-25T14:00:53;101065.09;;;4.50;74.19
48964;BME280;34776;48.180;16.420;2023-01-25T14:03:24;101065.09;;;4.47;74.13
48964;BME280;34776;48.180;16.420;2023-01-25T14:05:52;101060.72;;;4.43;74.19
48964;BME280;34776;48.180;16.420;2023-01-25T14:08:19;101062.53;;;4.38;74.15
48964;BME280;34776;48.180;16.420;2023-01-25T14:10:46;101053.81;;;4.33;74.04
48964;BME280;34776;48.180;16.420;2023-01-25T14:13:13;101058.19;;;4.31;74.33
48964;BME280;34776;48.180;16.420;2023-01-25T14:15:39;101053.81;;;4.33;74.42
48964;BME280;34776;48.180;16.420;2023-01-25T14:20:37;101051.19;;;4.26;74.62
48964;BME280;34776;48.180;16.420;2023-01-25T14:23:03;101059.97;;;4.24;74.51
48964;BME280;34776;48.180;16.420;2023-01-25T14:25:31;101057.38;;;4.22;74.57
48964;BME280;34776;48.180;16.420;2023-01-25T14:28:01;101062.63;;;4.19;74.47
48964;BME280;34776;48.180;16.420;2023-01-25T14:30:34;101060.03;;;4.15;74.66